Pagina principale
METAR-TAF:

METAR-TAF

Aeroporti :

Sigonella, Italia

Base aerea di Sigonella

latitudine: 37-24N, longitudine: 014-55E, altezza: 22 m

Osservazione

Il bollettino è stato emesso 19 minuti fa, alle 12:55 UTC
Vento 23 kt da ovest con raffiche fino a 33 kt
Temperature 17°C
Umidità 39%
Pressione 1021 hPa
Visibilità 10 km o più
Nubi sparse ad un'altezza di 3000 ft

METAR: LICZ 161255Z 27023G33KT 9999 SCT030 17/03 Q1021 RMK SCT VIS MIN 9999 WIND THR28 28020G31KT WIND THR10 28018G29KT A3017 BLU

Ora: 14:14 (13:14 UTC)

Previsione

Il bollettino è stato emesso 2 ore e 14 minuti fa, alle 11:00 UTC
Previsione valida dal 16 alle 12 UTC al 16 alle 21 UTC
Vento 17 kt da ovest con raffiche fino a 27 kt
Visibilità 10 km o più
Poco nuvoloso ad un'altezza di 3000 ft
Nubi sparse ad un'altezza di 8000 ft

TAF: LICZ 161100Z 1612/1621 28017G27KT 9999 FEW030 SCT080

Osservazioni e previsioni meteorologiche di più di 4000 aeroporti (messaggi METAR e TAF).

Le stazioni disponibili sono rappresentate dai dischi gialli e rossi sulla carta.

Puntare il mouse per vedere il nome della stazione.

Clicca sopra per visualizzare le osservazioni e previsioni meteorologiche.

Per cambiare la mappa : fare clic sui pulsanti verdi con una croce nera per ingrandire, il pulsante verde con un trattino per diminuire, o sulla freccia verde per le mappe adiacenti.


METAR-TAF: